Pagrindinis puslapis
METAR-TAF:

METAR-TAF

Oro uostai :

Nanas, Tailandas

platuma: 18-46N, ilguma: 100-46E, Aukštis: 200 m

Dabartinis oras

Ataskaita buvo paskelbta 1 valandą ir 10 minutes, ne 10:00 UTC
Vėjas 7 kt iš Pietų
Temperatūra 39°C
Drėgmė 21%
Slėgis 1004 hPa
Matomumas: 7000 m

METAR: VTCN 311000Z 18007KT 7000 NSC 39/13 Q1004 NOSIG

Laikas: 18:10 (11:10 UTC)

Prognozė

Ataskaita buvo paskelbta 6 valandos ir 10 minutes, ne 05:00 UTC
Prognozė galioja nuo 31 metu 06 UTC su 01 metu 06 UTC
Vėjas 5 kt iš Pietų
Matomumas: 7000 m
Tapsmas
nuo 31 metu 21 UTC su 31 metu 23 UTC
Matomumas: 3000 m
rūkana
Tapsmas
nuo 01 metu 02 UTC su 01 metu 04 UTC
Matomumas: 8000 m

TAF: VTCN 310500Z 3106/0106 18005KT 7000 NSC BECMG 3121/3123 3000 BR BECMG 0102/0104 8000 NSW

Orai ataskaitas ir orų prognozės (METAR, TAF).

turimą stotys yra geltonos ir raudonos taškus žemėlapyje.

Perkelti pele per norėdami pamatyti stoties vardą.

Tada spustelėkite, norėdami matyti oro stebėjimo ir prognozės.

Norėdami pakeisti žemėlapį: spustelėkite ant žalios mygtukų su juodo kryžiaus žemyn,; žalią mygtuką su brūkšneliu, jei norite nutolinti; arba žalių rodyklių gretimoms žemėlapius.


METAR-TAF: